sensor_id;sensor_type;location;lat;lon;timestamp;temperature;humidity
26990;DHT22;14537;47.788;11.858;2023-03-23T00:01:33;4.90;99.90
26990;DHT22;14537;47.788;11.858;2023-03-23T00:04:02;4.90;99.90
26990;DHT22;14537;47.788;11.858;2023-03-23T00:06:28;4.90;99.90
26990;DHT22;14537;47.788;11.858;2023-03-23T00:09:00;5.00;99.90
26990;DHT22;14537;47.788;11.858;2023-03-23T00:11:30;5.00;99.90
26990;DHT22;14537;47.788;11.858;2023-03-23T00:13:57;5.00;99.90
26990;DHT22;14537;47.788;11.858;2023-03-23T00:16:27;5.10;99.90
26990;DHT22;14537;47.788;11.858;2023-03-23T00:19:02;5.20;99.90
26990;DHT22;14537;47.788;11.858;2023-03-23T00:21:37;5.20;99.90
26990;DHT22;14537;47.788;11.858;2023-03-23T00:26:30;5.30;99.90
26990;DHT22;14537;47.788;11.858;2023-03-23T00:28:59;5.30;99.90
26990;DHT22;14537;47.788;11.858;2023-03-23T00:31:26;5.40;99.90
26990;DHT22;14537;47.788;11.858;2023-03-23T00:33:57;5.40;99.90
26990;DHT22;14537;47.788;11.858;2023-03-23T00:36:24;5.40;99.90
26990;DHT22;14537;47.788;11.858;2023-03-23T00:38:50;5.30;99.90
26990;DHT22;14537;47.788;11.858;2023-03-23T00:41:15;5.40;99.90
26990;DHT22;14537;47.788;11.858;2023-03-23T00:43:41;5.40;99.90
26990;DHT22;14537;47.788;11.858;2023-03-23T00:46:06;5.50;99.90
26990;DHT22;14537;47.788;11.858;2023-03-23T00:48:37;5.50;99.90
26990;DHT22;14537;47.788;11.858;2023-03-23T00:51:10;5.40;99.90
26990;DHT22;14537;47.788;11.858;2023-03-23T00:53:37;5.40;99.90
26990;DHT22;14537;47.788;11.858;2023-03-23T00:56:03;5.30;99.90
26990;DHT22;14537;47.788;11.858;2023-03-23T00:58:28;5.30;99.90
26990;DHT22;14537;47.788;11.858;2023-03-23T01:00:54;5.40;99.90
26990;DHT22;14537;47.788;11.858;2023-03-23T01:03:19;5.40;99.90
26990;DHT22;14537;47.788;11.858;2023-03-23T01:05:46;5.40;99.90
26990;DHT22;14537;47.788;11.858;2023-03-23T01:08:17;5.40;99.90
26990;DHT22;14537;47.788;11.858;2023-03-23T01:10:46;5.40;99.90
26990;DHT22;14537;47.788;11.858;2023-03-23T01:13:12;5.40;99.90
26990;DHT22;14537;47.788;11.858;2023-03-23T01:15:38;5.40;99.90
26990;DHT22;14537;47.788;11.858;2023-03-23T01:18:04;5.40;99.90
26990;DHT22;14537;47.788;11.858;2023-03-23T01:20:31;5.40;99.90
26990;DHT22;14537;47.788;11.858;2023-03-23T01:22:59;5.50;99.90
26990;DHT22;14537;47.788;11.858;2023-03-23T01:25:30;5.50;99.90
26990;DHT22;14537;47.788;11.858;2023-03-23T01:27:57;5.50;99.90
26990;DHT22;14537;47.788;11.858;2023-03-23T01:30:23;5.50;99.90
26990;DHT22;14537;47.788;11.858;2023-03-23T01:32:50;5.60;99.90
26990;DHT22;14537;47.788;11.858;2023-03-23T01:35:16;5.60;99.90
26990;DHT22;14537;47.788;11.858;2023-03-23T01:37:42;5.60;99.90
26990;DHT22;14537;47.788;11.858;2023-03-23T01:40:08;5.60;99.90
26990;DHT22;14537;47.788;11.858;2023-03-23T01:42:37;5.60;99.90
26990;DHT22;14537;47.788;11.858;2023-03-23T01:50:19;5.50;99.90
26990;DHT22;14537;47.788;11.858;2023-03-23T01:52:49;5.50;99.90
26990;DHT22;14537;47.788;11.858;2023-03-23T01:55:15;5.50;99.90
26990;DHT22;14537;47.788;11.858;2023-03-23T01:57:41;5.50;99.90
26990;DHT22;14537;47.788;11.858;2023-03-23T02:00:08;5.50;99.90
26990;DHT22;14537;47.788;11.858;2023-03-23T02:02:47;5.50;99.90
26990;DHT22;14537;47.788;11.858;2023-03-23T02:05:19;5.50;99.90
26990;DHT22;14537;47.788;11.858;2023-03-23T02:07:47;5.60;99.90
26990;DHT22;14537;47.788;11.858;2023-03-23T02:10:14;5.60;99.90
26990;DHT22;14537;47.788;11.858;2023-03-23T02:12:40;5.60;99.90
26990;DHT22;14537;47.788;11.858;2023-03-23T02:15:06;5.60;99.90
26990;DHT22;14537;47.788;11.858;2023-03-23T02:17:49;5.60;99.90
26990;DHT22;14537;47.788;11.858;2023-03-23T02:31:06;5.60;99.90
26990;DHT22;14537;47.788;11.858;2023-03-23T02:36:29;5.60;99.90
26990;DHT22;14537;47.788;11.858;2023-03-23T02:39:09;5.60;99.90
26990;DHT22;14537;47.788;11.858;2023-03-23T02:42:05;5.60;99.90
26990;DHT22;14537;47.788;11.858;2023-03-23T02:44:33;5.60;99.90
26990;DHT22;14537;47.788;11.858;2023-03-23T02:47:02;5.60;99.90
26990;DHT22;14537;47.788;11.858;2023-03-23T02:49:31;5.50;99.90
26990;DHT22;14537;47.788;11.858;2023-03-23T02:51:59;5.60;99.90
26990;DHT22;14537;47.788;11.858;2023-03-23T02:54:26;5.50;99.90
26990;DHT22;14537;47.788;11.858;2023-03-23T02:56:54;5.60;99.90
26990;DHT22;14537;47.788;11.858;2023-03-23T02:59:20;5.50;99.90
26990;DHT22;14537;47.788;11.858;2023-03-23T03:01:51;5.60;99.90
26990;DHT22;14537;47.788;11.858;2023-03-23T03:04:22;5.50;99.90
26990;DHT22;14537;47.788;11.858;2023-03-23T03:07:14;5.50;99.90
26990;DHT22;14537;47.788;11.858;2023-03-23T03:10:02;5.50;99.90
26990;DHT22;14537;47.788;11.858;2023-03-23T03:12:46;5.50;99.90
26990;DHT22;14537;47.788;11.858;2023-03-23T03:15:40;5.50;99.90
26990;DHT22;14537;47.788;11.858;2023-03-23T03:20:48;5.40;99.90
26990;DHT22;14537;47.788;11.858;2023-03-23T03:23:16;5.40;99.90
26990;DHT22;14537;47.788;11.858;2023-03-23T03:25:43;5.40;99.90
26990;DHT22;14537;47.788;11.858;2023-03-23T03:28:16;5.40;99.90
26990;DHT22;14537;47.788;11.858;2023-03-23T03:30:43;5.40;99.90
26990;DHT22;14537;47.788;11.858;2023-03-23T03:33:11;5.40;99.90
26990;DHT22;14537;47.788;11.858;2023-03-23T03:35:40;5.50;99.90
26990;DHT22;14537;47.788;11.858;2023-03-23T03:38:08;5.50;99.90
26990;DHT22;14537;47.788;11.858;2023-03-23T03:40:34;5.50;99.90
26990;DHT22;14537;47.788;11.858;2023-03-23T03:43:00;5.60;99.90
26990;DHT22;14537;47.788;11.858;2023-03-23T03:45:26;5.60;99.90
26990;DHT22;14537;47.788;11.858;2023-03-23T03:47:52;5.60;99.90
26990;DHT22;14537;47.788;11.858;2023-03-23T03:50:17;5.50;99.90
26990;DHT22;14537;47.788;11.858;2023-03-23T03:52:43;5.50;99.90
26990;DHT22;14537;47.788;11.858;2023-03-23T03:55:09;5.40;99.90
26990;DHT22;14537;47.788;11.858;2023-03-23T03:57:36;5.40;99.90
26990;DHT22;14537;47.788;11.858;2023-03-23T04:00:03;5.40;99.90
26990;DHT22;14537;47.788;11.858;2023-03-23T04:02:40;5.40;99.90
26990;DHT22;14537;47.788;11.858;2023-03-23T04:05:06;5.40;99.90
26990;DHT22;14537;47.788;11.858;2023-03-23T04:07:32;5.40;99.90
26990;DHT22;14537;47.788;11.858;2023-03-23T04:09:57;5.30;99.90
26990;DHT22;14537;47.788;11.858;2023-03-23T04:12:23;5.30;99.90
26990;DHT22;14537;47.788;11.858;2023-03-23T04:14:48;5.20;99.90
26990;DHT22;14537;47.788;11.858;2023-03-23T04:17:14;5.20;99.90
26990;DHT22;14537;47.788;11.858;2023-03-23T04:19:40;5.20;99.90
26990;DHT22;14537;47.788;11.858;2023-03-23T04:22:06;5.20;99.90
26990;DHT22;14537;47.788;11.858;2023-03-23T04:24:32;5.10;99.90
26990;DHT22;14537;47.788;11.858;2023-03-23T04:26:59;5.10;99.90
26990;DHT22;14537;47.788;11.858;2023-03-23T04:29:25;5.10;99.90
26990;DHT22;14537;47.788;11.858;2023-03-23T04:31:50;5.10;99.90
26990;DHT22;14537;47.788;11.858;2023-03-23T04:34:18;5.10;99.90
26990;DHT22;14537;47.788;11.858;2023-03-23T04:36:44;5.00;99.90
26990;DHT22;14537;47.788;11.858;2023-03-23T04:39:12;5.00;99.90
26990;DHT22;14537;47.788;11.858;2023-03-23T04:41:39;4.90;99.90
26990;DHT22;14537;47.788;11.858;2023-03-23T04:44:06;4.80;99.90
26990;DHT22;14537;47.788;11.858;2023-03-23T04:46:32;4.90;99.90
26990;DHT22;14537;47.788;11.858;2023-03-23T04:48:58;4.90;99.90
26990;DHT22;14537;47.788;11.858;2023-03-23T04:51:25;4.90;99.90
26990;DHT22;14537;47.788;11.858;2023-03-23T04:53:52;4.90;99.90
26990;DHT22;14537;47.788;11.858;2023-03-23T04:56:18;4.90;99.90
26990;DHT22;14537;47.788;11.858;2023-03-23T04:58:44;4.80;99.90
26990;DHT22;14537;47.788;11.858;2023-03-23T05:01:10;4.80;99.90
26990;DHT22;14537;47.788;11.858;2023-03-23T05:03:39;4.70;99.90
26990;DHT22;14537;47.788;11.858;2023-03-23T05:06:05;4.70;99.90
26990;DHT22;14537;47.788;11.858;2023-03-23T05:08:32;4.70;99.90
26990;DHT22;14537;47.788;11.858;2023-03-23T05:10:59;4.70;99.90
26990;DHT22;14537;47.788;11.858;2023-03-23T05:13:27;4.70;99.90
26990;DHT22;14537;47.788;11.858;2023-03-23T05:15:53;4.80;99.90
26990;DHT22;14537;47.788;11.858;2023-03-23T05:18:20;4.80;99.90
26990;DHT22;14537;47.788;11.858;2023-03-23T05:20:46;4.90;99.90
26990;DHT22;14537;47.788;11.858;2023-03-23T05:23:12;4.80;99.90
26990;DHT22;14537;47.788;11.858;2023-03-23T05:25:38;4.80;99.90
26990;DHT22;14537;47.788;11.858;2023-03-23T05:28:10;4.80;99.90
26990;DHT22;14537;47.788;11.858;2023-03-23T05:30:37;4.80;99.90
26990;DHT22;14537;47.788;11.858;2023-03-23T05:33:04;4.90;99.90
26990;DHT22;14537;47.788;11.858;2023-03-23T05:35:30;4.90;99.90
26990;DHT22;14537;47.788;11.858;2023-03-23T05:37:56;4.90;99.90
26990;DHT22;14537;47.788;11.858;2023-03-23T05:40:25;4.90;99.90
26990;DHT22;14537;47.788;11.858;2023-03-23T05:42:52;4.80;99.90
26990;DHT22;14537;47.788;11.858;2023-03-23T05:45:18;4.90;99.90
26990;DHT22;14537;47.788;11.858;2023-03-23T05:47:44;4.90;99.90
26990;DHT22;14537;47.788;11.858;2023-03-23T05:50:10;5.00;99.90
26990;DHT22;14537;47.788;11.858;2023-03-23T05:52:36;5.10;99.90
26990;DHT22;14537;47.788;11.858;2023-03-23T05:55:02;5.20;99.90
26990;DHT22;14537;47.788;11.858;2023-03-23T05:57:29;5.30;99.90
26990;DHT22;14537;47.788;11.858;2023-03-23T05:59:55;5.30;99.90
26990;DHT22;14537;47.788;11.858;2023-03-23T06:02:23;5.40;99.90
26990;DHT22;14537;47.788;11.858;2023-03-23T06:04:49;5.40;99.90
26990;DHT22;14537;47.788;11.858;2023-03-23T06:07:15;5.50;99.90
26990;DHT22;14537;47.788;11.858;2023-03-23T06:09:41;5.50;99.90
26990;DHT22;14537;47.788;11.858;2023-03-23T06:12:08;5.60;99.90
26990;DHT22;14537;47.788;11.858;2023-03-23T06:14:35;5.60;99.90
26990;DHT22;14537;47.788;11.858;2023-03-23T06:17:02;5.70;99.90
26990;DHT22;14537;47.788;11.858;2023-03-23T06:19:27;5.80;99.90
26990;DHT22;14537;47.788;11.858;2023-03-23T06:21:56;5.90;99.90
26990;DHT22;14537;47.788;11.858;2023-03-23T06:24:21;5.90;99.90
26990;DHT22;14537;47.788;11.858;2023-03-23T06:26:47;5.90;99.90
26990;DHT22;14537;47.788;11.858;2023-03-23T06:29:14;6.00;99.90
26990;DHT22;14537;47.788;11.858;2023-03-23T06:31:43;6.00;99.90
26990;DHT22;14537;47.788;11.858;2023-03-23T06:34:09;6.10;99.90
26990;DHT22;14537;47.788;11.858;2023-03-23T06:36:35;6.10;99.90
26990;DHT22;14537;47.788;11.858;2023-03-23T06:39:02;6.10;99.90
26990;DHT22;14537;47.788;11.858;2023-03-23T06:41:32;6.20;99.90
26990;DHT22;14537;47.788;11.858;2023-03-23T06:43:59;6.30;99.90
26990;DHT22;14537;47.788;11.858;2023-03-23T06:46:26;6.40;99.90
26990;DHT22;14537;47.788;11.858;2023-03-23T06:48:51;6.50;99.90
26990;DHT22;14537;47.788;11.858;2023-03-23T06:51:17;6.50;99.90
26990;DHT22;14537;47.788;11.858;2023-03-23T06:53:43;6.50;99.90
26990;DHT22;14537;47.788;11.858;2023-03-23T06:56:09;6.50;99.90
26990;DHT22;14537;47.788;11.858;2023-03-23T06:58:35;6.60;99.90
26990;DHT22;14537;47.788;11.858;2023-03-23T07:01:01;6.60;99.90
26990;DHT22;14537;47.788;11.858;2023-03-23T07:03:27;6.60;99.90
26990;DHT22;14537;47.788;11.858;2023-03-23T07:05:53;6.60;99.90
26990;DHT22;14537;47.788;11.858;2023-03-23T07:08:19;6.70;99.90
26990;DHT22;14537;47.788;11.858;2023-03-23T07:10:47;6.70;99.90
26990;DHT22;14537;47.788;11.858;2023-03-23T07:13:13;6.80;99.90
26990;DHT22;14537;47.788;11.858;2023-03-23T07:15:39;6.90;99.90
26990;DHT22;14537;47.788;11.858;2023-03-23T07:18:05;7.00;99.90
26990;DHT22;14537;47.788;11.858;2023-03-23T07:20:31;7.00;99.90
26990;DHT22;14537;47.788;11.858;2023-03-23T07:22:56;7.10;99.90
26990;DHT22;14537;47.788;11.858;2023-03-23T07:25:22;7.20;99.90
26990;DHT22;14537;47.788;11.858;2023-03-23T07:27:48;7.30;99.90
26990;DHT22;14537;47.788;11.858;2023-03-23T07:30:14;7.30;99.90
26990;DHT22;14537;47.788;11.858;2023-03-23T07:32:41;7.40;99.90
26990;DHT22;14537;47.788;11.858;2023-03-23T07:35:07;7.40;99.90
26990;DHT22;14537;47.788;11.858;2023-03-23T07:37:34;7.50;99.90
26990;DHT22;14537;47.788;11.858;2023-03-23T07:40:01;7.60;99.90
26990;DHT22;14537;47.788;11.858;2023-03-23T07:42:43;7.70;99.90
26990;DHT22;14537;47.788;11.858;2023-03-23T07:45:10;7.80;99.90
26990;DHT22;14537;47.788;11.858;2023-03-23T07:47:37;7.90;99.90
26990;DHT22;14537;47.788;11.858;2023-03-23T07:50:03;8.00;99.90
26990;DHT22;14537;47.788;11.858;2023-03-23T07:52:29;8.20;99.90
26990;DHT22;14537;47.788;11.858;2023-03-23T07:54:56;8.30;99.90
26990;DHT22;14537;47.788;11.858;2023-03-23T07:57:22;8.40;99.90
26990;DHT22;14537;47.788;11.858;2023-03-23T07:59:48;8.60;99.90
26990;DHT22;14537;47.788;11.858;2023-03-23T08:02:13;8.70;99.90
26990;DHT22;14537;47.788;11.858;2023-03-23T08:04:39;8.90;99.90
26990;DHT22;14537;47.788;11.858;2023-03-23T08:07:05;9.10;99.90
26990;DHT22;14537;47.788;11.858;2023-03-23T08:09:31;9.30;99.90
26990;DHT22;14537;47.788;11.858;2023-03-23T08:11:57;9.50;99.90
26990;DHT22;14537;47.788;11.858;2023-03-23T08:14:23;9.60;99.90
26990;DHT22;14537;47.788;11.858;2023-03-23T08:16:52;9.60;99.90
26990;DHT22;14537;47.788;11.858;2023-03-23T08:19:17;9.80;99.90
26990;DHT22;14537;47.788;11.858;2023-03-23T08:21:43;9.90;99.90
26990;DHT22;14537;47.788;11.858;2023-03-23T08:24:09;10.00;99.90
26990;DHT22;14537;47.788;11.858;2023-03-23T08:26:36;10.00;99.90
26990;DHT22;14537;47.788;11.858;2023-03-23T08:29:03;10.10;99.90
26990;DHT22;14537;47.788;11.858;2023-03-23T08:31:29;10.20;99.90
26990;DHT22;14537;47.788;11.858;2023-03-23T08:33:55;10.20;99.90
26990;DHT22;14537;47.788;11.858;2023-03-23T08:36:22;10.30;99.90
26990;DHT22;14537;47.788;11.858;2023-03-23T08:38:48;10.40;99.90
26990;DHT22;14537;47.788;11.858;2023-03-23T08:41:16;10.50;99.90
26990;DHT22;14537;47.788;11.858;2023-03-23T08:43:42;10.70;99.90
26990;DHT22;14537;47.788;11.858;2023-03-23T08:46:09;10.80;99.90
26990;DHT22;14537;47.788;11.858;2023-03-23T08:48:36;11.00;99.90
26990;DHT22;14537;47.788;11.858;2023-03-23T08:51:04;11.00;99.90
26990;DHT22;14537;47.788;11.858;2023-03-23T08:53:30;11.20;99.90
26990;DHT22;14537;47.788;11.858;2023-03-23T08:56:02;11.20;99.90
26990;DHT22;14537;47.788;11.858;2023-03-23T08:58:28;11.30;99.90
26990;DHT22;14537;47.788;11.858;2023-03-23T09:00:54;11.40;99.90
26990;DHT22;14537;47.788;11.858;2023-03-23T09:03:20;11.40;99.90
26990;DHT22;14537;47.788;11.858;2023-03-23T09:05:45;11.50;99.90
26990;DHT22;14537;47.788;11.858;2023-03-23T09:08:11;11.60;99.90
26990;DHT22;14537;47.788;11.858;2023-03-23T09:10:38;11.70;99.90
26990;DHT22;14537;47.788;11.858;2023-03-23T09:13:04;11.80;99.90
26990;DHT22;14537;47.788;11.858;2023-03-23T09:15:30;11.90;99.90
26990;DHT22;14537;47.788;11.858;2023-03-23T09:17:56;12.00;99.90
26990;DHT22;14537;47.788;11.858;2023-03-23T09:20:24;12.10;99.90
26990;DHT22;14537;47.788;11.858;2023-03-23T09:22:52;12.20;99.90
26990;DHT22;14537;47.788;11.858;2023-03-23T09:25:22;12.40;99.90
26990;DHT22;14537;47.788;11.858;2023-03-23T09:27:56;12.40;99.90
26990;DHT22;14537;47.788;11.858;2023-03-23T09:30:28;12.50;99.90
26990;DHT22;14537;47.788;11.858;2023-03-23T09:32:54;12.70;99.90
26990;DHT22;14537;47.788;11.858;2023-03-23T09:35:20;12.80;99.90
26990;DHT22;14537;47.788;11.858;2023-03-23T09:37:50;13.00;99.90
26990;DHT22;14537;47.788;11.858;2023-03-23T09:40:23;13.10;99.90
26990;DHT22;14537;47.788;11.858;2023-03-23T09:50:28;13.50;99.90
26990;DHT22;14537;47.788;11.858;2023-03-23T09:53:08;13.60;99.90
26990;DHT22;14537;47.788;11.858;2023-03-23T09:55:35;13.70;99.90
26990;DHT22;14537;47.788;11.858;2023-03-23T09:58:53;13.70;99.90
26990;DHT22;14537;47.788;11.858;2023-03-23T10:01:28;13.80;99.90
26990;DHT22;14537;47.788;11.858;2023-03-23T10:04:14;14.00;99.90
26990;DHT22;14537;47.788;11.858;2023-03-23T10:06:41;14.20;99.90
26990;DHT22;14537;47.788;11.858;2023-03-23T10:09:14;14.30;99.90
26990;DHT22;14537;47.788;11.858;2023-03-23T10:14:45;14.50;99.90
26990;DHT22;14537;47.788;11.858;2023-03-23T10:17:15;14.90;99.90
26990;DHT22;14537;47.788;11.858;2023-03-23T10:22:33;15.10;99.90
26990;DHT22;14537;47.788;11.858;2023-03-23T10:27:55;15.40;99.90
26990;DHT22;14537;47.788;11.858;2023-03-23T10:30:32;15.40;99.90
26990;DHT22;14537;47.788;11.858;2023-03-23T10:33:03;15.50;99.90
26990;DHT22;14537;47.788;11.858;2023-03-23T10:35:43;15.70;99.90
26990;DHT22;14537;47.788;11.858;2023-03-23T10:38:15;15.80;99.90
26990;DHT22;14537;47.788;11.858;2023-03-23T10:41:22;15.90;99.90
26990;DHT22;14537;47.788;11.858;2023-03-23T10:43:42;16.00;99.80
26990;DHT22;14537;47.788;11.858;2023-03-23T10:46:47;16.20;99.90
26990;DHT22;14537;47.788;11.858;2023-03-23T10:49:22;16.30;99.90
26990;DHT22;14537;47.788;11.858;2023-03-23T10:51:58;16.30;99.10
26990;DHT22;14537;47.788;11.858;2023-03-23T10:54:46;16.40;99.60
26990;DHT22;14537;47.788;11.858;2023-03-23T10:57:21;16.40;98.80
26990;DHT22;14537;47.788;11.858;2023-03-23T10:59:47;16.50;97.70
26990;DHT22;14537;47.788;11.858;2023-03-23T11:02:20;16.50;96.10
26990;DHT22;14537;47.788;11.858;2023-03-23T11:05:03;16.60;96.50
26990;DHT22;14537;47.788;11.858;2023-03-23T11:07:33;16.70;96.20
26990;DHT22;14537;47.788;11.858;2023-03-23T11:10:42;16.80;96.10
26990;DHT22;14537;47.788;11.858;2023-03-23T11:13:13;16.80;94.20
26990;DHT22;14537;47.788;11.858;2023-03-23T11:15:42;16.90;94.30
26990;DHT22;14537;47.788;11.858;2023-03-23T11:18:35;16.90;94.20
26990;DHT22;14537;47.788;11.858;2023-03-23T11:21:02;16.80;92.30
26990;DHT22;14537;47.788;11.858;2023-03-23T11:23:40;16.80;91.30
26990;DHT22;14537;47.788;11.858;2023-03-23T11:26:21;16.80;91.80
26990;DHT22;14537;47.788;11.858;2023-03-23T11:31:44;16.70;89.60
26990;DHT22;14537;47.788;11.858;2023-03-23T11:34:24;16.70;88.60
26990;DHT22;14537;47.788;11.858;2023-03-23T11:45:17;16.70;90.40
26990;DHT22;14537;47.788;11.858;2023-03-23T11:47:58;16.70;86.70
26990;DHT22;14537;47.788;11.858;2023-03-23T11:50:32;16.80;88.60
26990;DHT22;14537;47.788;11.858;2023-03-23T11:53:17;16.90;90.70
26990;DHT22;14537;47.788;11.858;2023-03-23T11:58:13;17.00;90.10
26990;DHT22;14537;47.788;11.858;2023-03-23T12:00:43;16.90;82.60
26990;DHT22;14537;47.788;11.858;2023-03-23T12:03:44;16.90;86.70
26990;DHT22;14537;47.788;11.858;2023-03-23T12:06:27;16.90;88.10
26990;DHT22;14537;47.788;11.858;2023-03-23T12:09:13;17.20;87.60
26990;DHT22;14537;47.788;11.858;2023-03-23T12:15:30;17.20;88.50
26990;DHT22;14537;47.788;11.858;2023-03-23T12:18:19;17.20;79.40
26990;DHT22;14537;47.788;11.858;2023-03-23T12:26:56;17.10;82.60
26990;DHT22;14537;47.788;11.858;2023-03-23T12:29:27;17.00;80.50
26990;DHT22;14537;47.788;11.858;2023-03-23T12:32:01;17.00;81.90
26990;DHT22;14537;47.788;11.858;2023-03-23T12:40:06;17.30;79.70
26990;DHT22;14537;47.788;11.858;2023-03-23T12:48:28;17.10;79.00
26990;DHT22;14537;47.788;11.858;2023-03-23T12:51:10;17.00;79.40
26990;DHT22;14537;47.788;11.858;2023-03-23T12:56:12;16.80;77.80
26990;DHT22;14537;47.788;11.858;2023-03-23T12:58:44;16.70;77.50
26990;DHT22;14537;47.788;11.858;2023-03-23T13:01:18;16.60;77.60
26990;DHT22;14537;47.788;11.858;2023-03-23T13:04:02;16.60;78.40
26990;DHT22;14537;47.788;11.858;2023-03-23T13:06:43;16.60;79.50
26990;DHT22;14537;47.788;11.858;2023-03-23T13:09:36;16.60;79.70
26990;DHT22;14537;47.788;11.858;2023-03-23T13:12:05;16.60;79.10
26990;DHT22;14537;47.788;11.858;2023-03-23T13:23:18;16.60;80.10
26990;DHT22;14537;47.788;11.858;2023-03-23T13:28:34;16.60;80.10
26990;DHT22;14537;47.788;11.858;2023-03-23T13:33:32;16.70;80.70
26990;DHT22;14537;47.788;11.858;2023-03-23T13:36:04;16.70;81.10
26990;DHT22;14537;47.788;11.858;2023-03-23T13:38:32;16.60;82.00
26990;DHT22;14537;47.788;11.858;2023-03-23T13:41:09;16.60;80.40
26990;DHT22;14537;47.788;11.858;2023-03-23T13:43:37;16.50;81.80
26990;DHT22;14537;47.788;11.858;2023-03-23T13:48:49;16.50;81.70
26990;DHT22;14537;47.788;11.858;2023-03-23T13:56:59;16.30;82.90
26990;DHT22;14537;47.788;11.858;2023-03-23T14:01:56;16.40;83.40
26990;DHT22;14537;47.788;11.858;2023-03-23T14:04:24;16.40;83.40
26990;DHT22;14537;47.788;11.858;2023-03-23T14:06:56;16.60;81.30
26990;DHT22;14537;47.788;11.858;2023-03-23T14:09:36;16.70;84.00
26990;DHT22;14537;47.788;11.858;2023-03-23T14:12:05;16.80;81.40
26990;DHT22;14537;47.788;11.858;2023-03-23T14:14:51;17.10;81.30
26990;DHT22;14537;47.788;11.858;2023-03-23T14:17:26;17.40;83.50
26990;DHT22;14537;47.788;11.858;2023-03-23T14:19:54;17.40;81.30
26990;DHT22;14537;47.788;11.858;2023-03-23T14:22:36;17.40;80.90
26990;DHT22;14537;47.788;11.858;2023-03-23T14:27:36;17.80;82.40
26990;DHT22;14537;47.788;11.858;2023-03-23T14:30:18;17.60;81.60
26990;DHT22;14537;47.788;11.858;2023-03-23T14:32:44;18.00;83.50
26990;DHT22;14537;47.788;11.858;2023-03-23T14:35:31;18.10;81.40
26990;DHT22;14537;47.788;11.858;2023-03-23T14:37:57;18.00;77.60
26990;DHT22;14537;47.788;11.858;2023-03-23T14:40:26;17.80;76.60
26990;DHT22;14537;47.788;11.858;2023-03-23T14:42:53;17.70;78.50
26990;DHT22;14537;47.788;11.858;2023-03-23T14:45:20;17.50;76.50
26990;DHT22;14537;47.788;11.858;2023-03-23T14:47:52;17.20;76.20
26990;DHT22;14537;47.788;11.858;2023-03-23T14:53:13;17.10;76.80
26990;DHT22;14537;47.788;11.858;2023-03-23T14:55:42;17.10;77.90
26990;DHT22;14537;47.788;11.858;2023-03-23T14:58:12;16.90;78.40
26990;DHT22;14537;47.788;11.858;2023-03-23T15:00:43;16.70;79.80
26990;DHT22;14537;47.788;11.858;2023-03-23T15:03:14;16.60;78.60
26990;DHT22;14537;47.788;11.858;2023-03-23T15:05:44;16.50;78.10
26990;DHT22;14537;47.788;11.858;2023-03-23T15:08:20;16.60;79.90
26990;DHT22;14537;47.788;11.858;2023-03-23T15:11:01;16.50;78.80
26990;DHT22;14537;47.788;11.858;2023-03-23T15:13:28;16.50;79.90
26990;DHT22;14537;47.788;11.858;2023-03-23T15:16:02;16.50;78.90
26990;DHT22;14537;47.788;11.858;2023-03-23T15:18:35;16.40;79.30
26990;DHT22;14537;47.788;11.858;2023-03-23T15:21:10;16.40;81.20
26990;DHT22;14537;47.788;11.858;2023-03-23T15:23:42;16.40;81.00
26990;DHT22;14537;47.788;11.858;2023-03-23T15:26:28;16.40;80.30
26990;DHT22;14537;47.788;11.858;2023-03-23T15:29:17;16.40;80.70
26990;DHT22;14537;47.788;11.858;2023-03-23T15:31:48;16.20;81.40
26990;DHT22;14537;47.788;11.858;2023-03-23T15:34:25;16.10;82.10
26990;DHT22;14537;47.788;11.858;2023-03-23T15:37:01;16.00;82.80
26990;DHT22;14537;47.788;11.858;2023-03-23T15:39:27;16.00;84.00
26990;DHT22;14537;47.788;11.858;2023-03-23T15:41:54;16.00;84.60
26990;DHT22;14537;47.788;11.858;2023-03-23T15:44:32;15.90;85.40
26990;DHT22;14537;47.788;11.858;2023-03-23T15:47:16;16.00;84.70
26990;DHT22;14537;47.788;11.858;2023-03-23T15:49:44;15.90;84.40
26990;DHT22;14537;47.788;11.858;2023-03-23T15:52:11;15.80;86.30
26990;DHT22;14537;47.788;11.858;2023-03-23T15:54:38;15.70;85.60
26990;DHT22;14537;47.788;11.858;2023-03-23T15:57:04;15.60;86.50
26990;DHT22;14537;47.788;11.858;2023-03-23T15:59:30;15.50;85.90
26990;DHT22;14537;47.788;11.858;2023-03-23T16:01:56;15.50;86.00
26990;DHT22;14537;47.788;11.858;2023-03-23T16:04:25;15.50;87.60
26990;DHT22;14537;47.788;11.858;2023-03-23T16:06:52;15.50;87.30
26990;DHT22;14537;47.788;11.858;2023-03-23T16:09:20;15.50;87.10
26990;DHT22;14537;47.788;11.858;2023-03-23T16:11:46;15.30;87.30
26990;DHT22;14537;47.788;11.858;2023-03-23T16:14:11;15.30;89.00
26990;DHT22;14537;47.788;11.858;2023-03-23T16:16:45;15.20;88.40
26990;DHT22;14537;47.788;11.858;2023-03-23T16:19:13;15.20;87.90
26990;DHT22;14537;47.788;11.858;2023-03-23T16:21:39;15.10;89.00
26990;DHT22;14537;47.788;11.858;2023-03-23T16:24:06;15.10;89.70
26990;DHT22;14537;47.788;11.858;2023-03-23T16:26:33;15.10;90.30
26990;DHT22;14537;47.788;11.858;2023-03-23T16:28:59;15.10;90.20
26990;DHT22;14537;47.788;11.858;2023-03-23T16:31:25;15.00;90.90
26990;DHT22;14537;47.788;11.858;2023-03-23T16:33:50;15.00;90.50
26990;DHT22;14537;47.788;11.858;2023-03-23T16:36:16;14.90;91.00
26990;DHT22;14537;47.788;11.858;2023-03-23T16:38:42;14.90;91.70
26990;DHT22;14537;47.788;11.858;2023-03-23T16:41:07;14.90;91.10
26990;DHT22;14537;47.788;11.858;2023-03-23T16:43:34;14.90;91.60
26990;DHT22;14537;47.788;11.858;2023-03-23T16:45:59;14.80;90.70
26990;DHT22;14537;47.788;11.858;2023-03-23T16:48:25;14.80;91.10
26990;DHT22;14537;47.788;11.858;2023-03-23T16:50:51;14.70;91.20
26990;DHT22;14537;47.788;11.858;2023-03-23T16:53:19;14.70;91.90
26990;DHT22;14537;47.788;11.858;2023-03-23T16:55:45;14.60;91.90
26990;DHT22;14537;47.788;11.858;2023-03-23T16:58:13;14.60;92.90
26990;DHT22;14537;47.788;11.858;2023-03-23T17:00:39;14.60;92.90
26990;DHT22;14537;47.788;11.858;2023-03-23T17:03:05;14.60;92.50
26990;DHT22;14537;47.788;11.858;2023-03-23T17:05:31;14.50;92.80
26990;DHT22;14537;47.788;11.858;2023-03-23T17:07:57;14.40;93.40
26990;DHT22;14537;47.788;11.858;2023-03-23T17:10:25;14.30;93.20
26990;DHT22;14537;47.788;11.858;2023-03-23T17:12:52;14.30;93.50
26990;DHT22;14537;47.788;11.858;2023-03-23T17:15:18;14.30;93.70
26990;DHT22;14537;47.788;11.858;2023-03-23T17:17:44;14.30;94.10
26990;DHT22;14537;47.788;11.858;2023-03-23T17:20:10;14.20;93.30
26990;DHT22;14537;47.788;11.858;2023-03-23T17:22:37;14.30;93.60
26990;DHT22;14537;47.788;11.858;2023-03-23T17:25:03;14.20;93.90
26990;DHT22;14537;47.788;11.858;2023-03-23T17:27:30;14.10;94.10